createdAt,value
2019-02-19T00:00:45.800Z,94.30
2019-02-19T00:03:14.926Z,93.90
2019-02-19T00:05:44.123Z,94.30
2019-02-19T00:08:13.342Z,94.40
2019-02-19T00:10:42.747Z,94.30
2019-02-19T00:13:12.064Z,94.30
2019-02-19T00:15:41.567Z,94.20
2019-02-19T00:18:10.794Z,94.30
2019-02-19T00:20:39.988Z,94.50
2019-02-19T00:23:09.109Z,94.50
2019-02-19T00:25:38.498Z,94.40
2019-02-19T00:28:10.566Z,94.50
2019-02-19T00:30:39.859Z,94.60
2019-02-19T00:33:08.977Z,94.60
2019-02-19T00:35:38.193Z,94.30
2019-02-19T00:38:07.410Z,94.20
2019-02-19T00:40:36.786Z,94.00
2019-02-19T00:43:06.027Z,93.90
2019-02-19T00:45:35.331Z,93.80
2019-02-19T00:48:04.661Z,93.80
2019-02-19T00:50:33.966Z,94.30
2019-02-19T00:53:03.178Z,94.70
2019-02-19T00:55:32.374Z,94.90
2019-02-19T00:58:01.503Z,94.80
2019-02-19T01:00:30.700Z,94.90
2019-02-19T01:03:00.034Z,94.90
2019-02-19T01:05:29.355Z,94.70
2019-02-19T01:07:58.782Z,94.50
2019-02-19T01:10:28.117Z,94.80
2019-02-19T01:12:57.399Z,94.90
2019-02-19T01:15:26.723Z,94.80
2019-02-19T01:17:55.934Z,94.90
2019-02-19T01:20:25.270Z,95.00
2019-02-19T01:22:54.660Z,94.70
2019-02-19T01:25:23.783Z,94.30
2019-02-19T01:27:53.088Z,94.30
2019-02-19T01:30:22.318Z,94.30
2019-02-19T01:32:51.489Z,94.20
2019-02-19T01:35:20.723Z,94.40
2019-02-19T01:37:49.928Z,94.40
2019-02-19T01:40:19.152Z,94.10
2019-02-19T01:42:48.450Z,94.30
2019-02-19T01:45:17.661Z,94.00
2019-02-19T01:47:47.058Z,94.40
2019-02-19T01:50:16.291Z,94.70
2019-02-19T01:52:45.581Z,94.90
2019-02-19T01:55:14.811Z,95.10
2019-02-19T01:57:44.006Z,95.00
2019-02-19T02:00:13.935Z,95.10
2019-02-19T02:02:43.235Z,95.30
2019-02-19T02:05:12.452Z,95.20
2019-02-19T02:07:41.636Z,95.10
2019-02-19T02:10:10.858Z,95.00
2019-02-19T02:12:40.347Z,94.70
2019-02-19T02:15:09.586Z,94.20
2019-02-19T02:17:38.871Z,94.60
2019-02-19T02:20:08.801Z,94.70
2019-02-19T02:22:38.091Z,94.80
2019-02-19T02:25:07.523Z,95.00
2019-02-19T02:27:36.640Z,95.30
2019-02-19T02:30:07.530Z,95.50
2019-02-19T02:32:36.757Z,95.50
2019-02-19T02:35:06.261Z,95.40
2019-02-19T02:37:35.392Z,95.50
2019-02-19T02:40:06.092Z,95.40
2019-02-19T02:42:35.433Z,95.30
2019-02-19T02:45:05.233Z,95.20
2019-02-19T02:47:34.475Z,95.00
2019-02-19T02:50:04.175Z,95.40
2019-02-19T02:52:33.402Z,95.30
2019-02-19T02:55:02.616Z,95.50
2019-02-19T02:57:31.815Z,95.30
2019-02-19T03:00:01.322Z,95.30
2019-02-19T03:02:30.451Z,95.00
2019-02-19T03:04:59.654Z,95.00
2019-02-19T03:07:33.472Z,95.20
2019-02-19T03:10:02.748Z,95.30
2019-02-19T03:12:31.985Z,95.40
2019-02-19T03:15:01.160Z,95.30
2019-02-19T03:17:30.406Z,95.70
2019-02-19T03:19:59.617Z,95.90
2019-02-19T03:22:28.740Z,95.80
2019-02-19T03:24:58.118Z,95.80
2019-02-19T03:27:27.253Z,95.60
2019-02-19T03:29:56.531Z,95.40
2019-02-19T03:32:25.658Z,95.60
2019-02-19T03:34:54.858Z,95.90
2019-02-19T03:37:23.980Z,95.90
2019-02-19T03:39:53.189Z,95.90
2019-02-19T03:42:22.407Z,95.70
2019-02-19T03:44:51.701Z,95.90
2019-02-19T03:47:20.815Z,95.70
2019-02-19T03:49:50.018Z,95.50
2019-02-19T03:52:19.152Z,95.30
2019-02-19T03:54:48.457Z,95.60
2019-02-19T03:57:17.887Z,95.70
2019-02-19T03:59:47.202Z,95.90
2019-02-19T04:02:16.501Z,96.00
2019-02-19T04:04:45.712Z,95.80
2019-02-19T04:07:14.917Z,95.80
2019-02-19T04:09:44.031Z,96.00
2019-02-19T04:12:13.220Z,96.10
2019-02-19T04:14:42.452Z,96.20
2019-02-19T04:17:11.751Z,96.10
2019-02-19T04:19:40.888Z,96.50
2019-02-19T04:22:10.174Z,96.10
2019-02-19T04:24:39.287Z,95.90
2019-02-19T04:27:08.577Z,95.70
2019-02-19T04:29:38.003Z,95.90
2019-02-19T04:32:07.206Z,96.10
2019-02-19T04:34:36.322Z,96.10
2019-02-19T04:37:05.503Z,96.10
2019-02-19T04:39:34.723Z,96.20
2019-02-19T04:42:04.103Z,96.40
2019-02-19T04:44:33.224Z,96.40
2019-02-19T04:47:02.609Z,96.10
2019-02-19T04:49:31.750Z,96.50
2019-02-19T04:52:01.049Z,96.50
2019-02-19T04:54:30.289Z,96.90
2019-02-19T04:56:59.574Z,96.40
2019-02-19T04:59:28.799Z,96.50
2019-02-19T05:01:58.112Z,96.00
2019-02-19T05:04:27.319Z,96.50
2019-02-19T05:06:56.609Z,96.50
2019-02-19T05:09:25.833Z,96.50
2019-02-19T05:11:55.045Z,96.40
2019-02-19T05:14:24.270Z,96.50
2019-02-19T05:16:53.464Z,96.50
2019-02-19T05:19:22.877Z,96.40
2019-02-19T05:21:51.995Z,96.70
2019-02-19T05:24:21.171Z,96.70
2019-02-19T05:26:50.391Z,97.00
2019-02-19T05:29:19.694Z,97.00
2019-02-19T05:31:48.809Z,96.90
2019-02-19T05:34:19.463Z,97.10
2019-02-19T05:36:48.642Z,96.70
2019-02-19T05:39:17.941Z,96.70
2019-02-19T05:41:47.064Z,96.50
2019-02-19T05:44:16.265Z,96.40
2019-02-19T05:46:49.967Z,96.60
2019-02-19T05:49:16.422Z,96.70
2019-02-19T05:51:45.545Z,96.50
2019-02-19T05:54:14.728Z,96.20
2019-02-19T05:56:43.843Z,96.40
2019-02-19T05:59:13.035Z,96.70
2019-02-19T06:01:42.157Z,96.80
2019-02-19T06:04:11.440Z,96.70
2019-02-19T06:06:40.553Z,96.60
2019-02-19T06:09:09.750Z,96.70
2019-02-19T06:11:38.863Z,96.50
2019-02-19T06:14:08.047Z,96.50
2019-02-19T06:16:37.169Z,96.80
2019-02-19T06:19:06.348Z,96.50
2019-02-19T06:21:35.459Z,96.20
2019-02-19T06:24:04.852Z,96.50
2019-02-19T06:26:33.963Z,96.40
2019-02-19T06:29:06.363Z,97.20
2019-02-19T06:31:35.471Z,96.80
2019-02-19T06:34:04.744Z,96.80
2019-02-19T06:36:33.866Z,96.90
2019-02-19T06:39:03.063Z,96.70
2019-02-19T06:41:32.497Z,96.60
2019-02-19T06:44:01.683Z,96.60
2019-02-19T06:46:30.899Z,96.40
2019-02-19T06:49:00.016Z,96.10
2019-02-19T06:51:29.298Z,95.80
2019-02-19T06:53:58.417Z,95.90
2019-02-19T06:56:27.710Z,95.60
2019-02-19T06:58:56.832Z,95.50
2019-02-19T07:01:27.598Z,95.70
2019-02-19T07:04:01.159Z,95.70
2019-02-19T07:06:30.794Z,95.80
2019-02-19T07:08:59.977Z,95.20
2019-02-19T07:11:29.148Z,94.20
2019-02-19T07:13:58.262Z,93.70
2019-02-19T07:16:27.446Z,92.60
2019-02-19T07:18:56.564Z,91.90
2019-02-19T07:21:25.741Z,91.20
2019-02-19T07:24:04.211Z,88.50
2019-02-19T07:26:25.785Z,86.70
2019-02-19T07:28:54.895Z,83.60
2019-02-19T07:31:24.094Z,81.00
2019-02-19T07:33:53.207Z,78.00
2019-02-19T07:36:22.385Z,77.50
2019-02-19T07:38:52.489Z,78.90
2019-02-19T07:41:21.795Z,81.20
2019-02-19T07:43:50.905Z,83.00
2019-02-19T07:46:20.208Z,84.20
2019-02-19T07:48:49.326Z,85.30
2019-02-19T07:51:18.505Z,84.80
2019-02-19T07:53:47.619Z,84.30
2019-02-19T07:56:16.808Z,82.50
2019-02-19T07:58:45.921Z,80.50
2019-02-19T08:01:15.203Z,77.10
2019-02-19T08:03:44.320Z,75.80
2019-02-19T08:06:13.510Z,73.90
2019-02-19T08:08:42.628Z,72.10
2019-02-19T08:11:11.812Z,71.50
2019-02-19T08:13:40.916Z,68.90
2019-02-19T08:16:10.115Z,68.80
2019-02-19T08:18:39.231Z,70.50
2019-02-19T08:21:08.415Z,73.00
2019-02-19T08:23:37.532Z,74.60
2019-02-19T08:26:06.703Z,73.50
2019-02-19T08:28:35.826Z,73.50
2019-02-19T08:31:05.253Z,73.40
2019-02-19T08:33:34.445Z,73.50
2019-02-19T08:36:03.577Z,73.60
2019-02-19T08:38:32.847Z,73.50
2019-02-19T08:41:01.976Z,74.30
2019-02-19T08:43:31.155Z,74.10
2019-02-19T08:46:00.270Z,74.00
2019-02-19T08:48:29.564Z,73.70
2019-02-19T08:50:58.770Z,73.60
2019-02-19T08:53:27.949Z,75.00
2019-02-19T08:55:57.161Z,74.30
2019-02-19T08:58:26.362Z,73.50
2019-02-19T09:00:55.484Z,70.10
2019-02-19T09:03:24.668Z,67.50
2019-02-19T09:05:53.976Z,67.60
2019-02-19T09:08:23.178Z,66.30
2019-02-19T09:10:52.486Z,66.20
2019-02-19T09:13:21.779Z,64.90
2019-02-19T09:15:50.902Z,64.50
2019-02-19T09:18:20.097Z,64.30
2019-02-19T09:20:49.407Z,64.20
2019-02-19T09:23:18.707Z,62.60
2019-02-19T09:25:48.014Z,63.80
2019-02-19T09:28:17.431Z,62.90
2019-02-19T09:30:46.656Z,62.10
2019-02-19T09:33:15.930Z,61.60
2019-02-19T09:35:45.366Z,61.30
2019-02-19T09:38:14.669Z,59.30
2019-02-19T09:40:43.790Z,58.50
2019-02-19T09:43:13.019Z,58.70
2019-02-19T09:45:42.216Z,59.90
2019-02-19T09:48:11.316Z,60.40
2019-02-19T09:50:40.517Z,59.70
2019-02-19T09:53:09.635Z,60.30
2019-02-19T09:55:38.817Z,59.30
2019-02-19T09:58:07.929Z,60.90
2019-02-19T10:00:37.109Z,60.60
2019-02-19T10:03:06.421Z,61.60
2019-02-19T10:05:35.603Z,61.50
2019-02-19T10:08:04.913Z,61.80
2019-02-19T10:10:34.114Z,63.60
2019-02-19T10:13:03.225Z,62.50
2019-02-19T10:15:32.398Z,63.30
2019-02-19T10:18:09.693Z,62.40
2019-02-19T10:20:32.454Z,63.50
2019-02-19T10:23:01.665Z,63.70
2019-02-19T10:25:30.862Z,62.30
2019-02-19T10:28:00.108Z,63.10
2019-02-19T10:30:29.256Z,61.80
2019-02-19T10:32:58.490Z,62.70
2019-02-19T10:35:27.761Z,61.50
2019-02-19T10:37:57.017Z,61.00
2019-02-19T10:40:26.391Z,60.10
2019-02-19T10:42:55.735Z,60.30
2019-02-19T10:45:26.410Z,62.00
2019-02-19T10:47:55.906Z,60.60
2019-02-19T10:50:25.238Z,59.40
2019-02-19T10:52:54.573Z,58.60
2019-02-19T10:55:26.556Z,58.80
2019-02-19T10:57:55.679Z,56.90
2019-02-19T11:00:25.362Z,56.10
2019-02-19T11:02:54.494Z,55.70
2019-02-19T11:05:23.991Z,55.70
2019-02-19T11:07:53.312Z,55.60
2019-02-19T11:10:22.621Z,53.40
2019-02-19T11:12:51.725Z,53.00
2019-02-19T11:15:20.913Z,52.90
2019-02-19T11:17:50.123Z,52.80
2019-02-19T11:20:23.150Z,54.50
2019-02-19T11:22:52.457Z,54.40
2019-02-19T11:25:21.653Z,55.80
2019-02-19T11:27:50.844Z,53.40
2019-02-19T11:30:20.751Z,55.30
2019-02-19T11:32:50.154Z,55.10
2019-02-19T11:35:19.505Z,55.50
2019-02-19T11:37:48.666Z,55.40
2019-02-19T11:40:17.811Z,56.50
2019-02-19T11:42:47.096Z,57.00
2019-02-19T11:45:17.709Z,57.30
2019-02-19T11:47:46.896Z,56.40
2019-02-19T11:50:16.230Z,57.00
2019-02-19T11:52:46.956Z,57.60
2019-02-19T11:55:18.194Z,56.60
2019-02-19T11:57:49.930Z,56.60
2019-02-19T12:00:20.717Z,56.40
2019-02-19T12:02:49.897Z,57.50
2019-02-19T12:05:19.462Z,56.90
2019-02-19T12:07:48.749Z,58.10
2019-02-19T12:10:17.861Z,57.80
2019-02-19T12:12:47.182Z,58.30
2019-02-19T12:15:16.428Z,58.50
2019-02-19T12:17:45.802Z,58.60
2019-02-19T12:20:15.429Z,59.80
2019-02-19T12:22:44.959Z,59.70
2019-02-19T12:25:14.688Z,60.80
2019-02-19T12:27:45.175Z,60.30
2019-02-19T12:30:16.448Z,60.20
2019-02-19T12:32:45.835Z,60.80
2019-02-19T12:35:15.149Z,61.70
2019-02-19T12:37:44.539Z,61.00
2019-02-19T12:40:14.572Z,61.40
2019-02-19T12:42:43.972Z,62.30
2019-02-19T12:45:14.913Z,63.20
2019-02-19T12:47:44.191Z,63.80
2019-02-19T12:50:15.614Z,65.20
2019-02-19T12:52:45.103Z,64.80
2019-02-19T12:55:14.429Z,65.30
2019-02-19T12:57:44.519Z,65.60
2019-02-19T13:00:18.093Z,66.10
2019-02-19T13:02:47.379Z,65.40
2019-02-19T13:05:17.110Z,66.60
2019-02-19T13:07:47.059Z,66.90
2019-02-19T13:10:16.427Z,67.60
2019-02-19T13:12:45.639Z,67.30
2019-02-19T13:15:22.410Z,69.30
2019-02-19T13:17:51.632Z,69.00
2019-02-19T13:20:21.013Z,70.10
2019-02-19T13:22:50.241Z,70.10
2019-02-19T13:25:19.522Z,70.80
2019-02-19T13:27:48.754Z,72.10
2019-02-19T13:30:19.738Z,72.50
2019-02-19T13:32:49.041Z,72.30
2019-02-19T13:35:18.215Z,72.70
2019-02-19T13:37:47.425Z,73.50
2019-02-19T13:40:18.672Z,74.20
2019-02-19T13:42:47.910Z,75.30
2019-02-19T13:45:17.290Z,75.50
2019-02-19T13:47:46.397Z,76.10
2019-02-19T13:50:20.958Z,77.10
2019-02-19T13:52:54.456Z,77.20
2019-02-19T13:55:25.217Z,77.30
2019-02-19T13:57:54.359Z,78.90
2019-02-19T14:00:25.186Z,79.80
2019-02-19T14:02:54.413Z,81.20
2019-02-19T14:05:23.698Z,81.60
2019-02-19T14:07:52.917Z,82.10
2019-02-19T14:10:22.097Z,82.20
2019-02-19T14:12:51.329Z,82.40
2019-02-19T14:15:38.388Z,82.40
2019-02-19T14:18:09.087Z,82.80
2019-02-19T14:20:55.975Z,83.60
2019-02-19T14:23:42.723Z,83.80
2019-02-19T14:26:13.624Z,83.00
2019-02-19T14:29:00.596Z,82.60
2019-02-19T14:31:40.147Z,83.30
2019-02-19T14:34:10.845Z,83.00
2019-02-19T14:36:50.638Z,82.60
2019-02-19T14:39:21.363Z,83.30
2019-02-19T14:42:08.418Z,81.90
2019-02-19T14:44:55.437Z,82.60
2019-02-19T14:47:42.120Z,82.60
2019-02-19T14:50:21.463Z,82.30
2019-02-19T14:52:55.218Z,82.80
2019-02-19T14:55:29.101Z,82.10
2019-02-19T14:58:08.268Z,81.90
2019-02-19T15:00:57.252Z,81.50
2019-02-19T15:03:27.982Z,81.80
2019-02-19T15:06:17.043Z,82.30
2019-02-19T15:08:53.893Z,82.30
2019-02-19T15:11:24.676Z,82.10
2019-02-19T15:14:01.196Z,82.00
2019-02-19T15:16:31.922Z,82.50
2019-02-19T15:19:02.651Z,82.50
2019-02-19T15:21:36.416Z,83.20
2019-02-19T15:24:22.048Z,83.00
2019-02-19T15:26:54.551Z,83.10
2019-02-19T15:29:41.418Z,82.70
2019-02-19T15:32:12.298Z,82.60
2019-02-19T15:34:46.121Z,82.80
2019-02-19T15:37:28.669Z,83.10
2019-02-19T15:40:05.410Z,83.20
2019-02-19T15:42:38.927Z,83.50
2019-02-19T15:45:13.787Z,83.10
2019-02-19T15:48:00.255Z,83.00
2019-02-19T15:50:47.020Z,83.40
2019-02-19T15:53:26.915Z,83.80
2019-02-19T15:56:17.178Z,83.90
2019-02-19T15:58:45.043Z,84.80
2019-02-19T16:01:31.459Z,85.60
2019-02-19T16:04:18.349Z,86.50
2019-02-19T16:06:49.066Z,87.20
2019-02-19T16:09:25.329Z,87.10
2019-02-19T16:11:56.052Z,87.50
2019-02-19T16:14:32.723Z,87.80
2019-02-19T16:17:03.446Z,88.10
2019-02-19T16:19:37.185Z,88.20
2019-02-19T16:22:19.868Z,88.40
2019-02-19T16:24:53.630Z,88.70
2019-02-19T16:27:27.050Z,88.50
2019-02-19T16:29:59.263Z,88.80
2019-02-19T16:32:48.112Z,88.60
2019-02-19T16:35:35.095Z,88.80
2019-02-19T16:38:11.332Z,88.80
2019-02-19T16:40:42.473Z,89.00
2019-02-19T16:43:15.919Z,89.10
2019-02-19T16:45:46.766Z,89.30
2019-02-19T16:48:29.653Z,89.20
2019-02-19T16:51:02.036Z,89.60
2019-02-19T16:53:32.690Z,89.90
2019-02-19T16:56:06.199Z,89.80
2019-02-19T16:58:36.920Z,90.00
2019-02-19T17:01:24.896Z,90.00
2019-02-19T17:03:55.666Z,90.30
2019-02-19T17:06:26.571Z,90.60
2019-02-19T17:08:57.289Z,91.10
2019-02-19T17:11:31.403Z,91.50
2019-02-19T17:14:04.832Z,91.60
2019-02-19T17:16:38.482Z,91.70
2019-02-19T17:19:11.834Z,91.80
2019-02-19T17:21:42.639Z,91.90
2019-02-19T17:24:16.404Z,92.20
2019-02-19T17:26:53.003Z,92.40
2019-02-19T17:29:29.551Z,92.40
2019-02-19T17:32:12.426Z,92.30
2019-02-19T17:34:46.177Z,92.40
2019-02-19T17:37:33.289Z,92.10
2019-02-19T17:40:04.033Z,92.50
2019-02-19T17:42:43.670Z,92.50
2019-02-19T17:45:17.570Z,92.80
2019-02-19T17:48:00.200Z,92.90
2019-02-19T17:50:38.138Z,93.10
2019-02-19T17:53:06.573Z,93.50
2019-02-19T17:55:42.993Z,93.70
2019-02-19T17:58:13.795Z,93.60
2019-02-19T18:00:44.636Z,94.10
2019-02-19T18:03:15.490Z,93.80
2019-02-19T18:05:46.212Z,93.60
2019-02-19T18:08:17.144Z,93.40
2019-02-19T18:10:51.403Z,93.40
2019-02-19T18:13:31.112Z,93.50
2019-02-19T18:16:10.676Z,93.80
2019-02-19T18:18:52.362Z,94.40
2019-02-19T18:21:21.746Z,95.30
2019-02-19T18:23:51.257Z,95.10
2019-02-19T18:26:20.662Z,94.30
2019-02-19T18:28:49.861Z,94.60
2019-02-19T18:31:18.969Z,94.40
2019-02-19T18:33:48.301Z,94.30
2019-02-19T18:36:17.601Z,94.00
2019-02-19T18:38:46.885Z,94.10
2019-02-19T18:41:15.998Z,94.50
2019-02-19T18:43:47.314Z,94.70
2019-02-19T18:46:17.204Z,95.00
2019-02-19T18:48:46.605Z,95.20
2019-02-19T18:51:15.835Z,95.40
2019-02-19T18:53:45.126Z,95.70
2019-02-19T18:56:14.343Z,95.70
2019-02-19T18:58:43.624Z,95.50
2019-02-19T19:01:12.856Z,95.70
2019-02-19T19:03:42.064Z,95.70
2019-02-19T19:06:11.177Z,95.70
2019-02-19T19:08:40.467Z,95.60
2019-02-19T19:11:09.850Z,95.50
2019-02-19T19:13:39.109Z,95.50
2019-02-19T19:16:08.434Z,95.60
2019-02-19T19:18:37.614Z,96.00
2019-02-19T19:21:08.227Z,96.20
2019-02-19T19:23:37.638Z,96.50
2019-02-19T19:26:07.079Z,96.50
2019-02-19T19:28:36.434Z,96.50
2019-02-19T19:31:05.932Z,96.40
2019-02-19T19:33:35.245Z,96.40
2019-02-19T19:36:04.654Z,96.80
2019-02-19T19:38:34.013Z,96.50
2019-02-19T19:41:03.535Z,96.50
2019-02-19T19:43:32.755Z,96.60
2019-02-19T19:46:02.086Z,96.70
2019-02-19T19:48:31.296Z,96.80
2019-02-19T19:51:02.254Z,96.90
2019-02-19T19:53:31.504Z,97.20
2019-02-19T19:56:00.791Z,97.30
2019-02-19T19:58:29.887Z,97.50
2019-02-19T20:00:59.070Z,97.20
2019-02-19T20:03:28.185Z,97.30
2019-02-19T20:05:57.373Z,97.40
2019-02-19T20:08:26.488Z,97.50
2019-02-19T20:10:58.836Z,97.40
2019-02-19T20:13:28.162Z,97.20
2019-02-19T20:15:57.492Z,96.90
2019-02-19T20:18:26.773Z,97.00
2019-02-19T20:20:56.174Z,97.20
2019-02-19T20:23:25.398Z,97.30
2019-02-19T20:25:55.942Z,97.40
2019-02-19T20:28:25.285Z,97.50
2019-02-19T20:30:54.788Z,97.60
2019-02-19T20:33:24.039Z,97.90
2019-02-19T20:35:53.341Z,98.10
2019-02-19T20:38:23.707Z,98.30
2019-02-19T20:40:53.014Z,98.30
2019-02-19T20:43:22.461Z,98.40
2019-02-19T20:45:51.973Z,98.30
2019-02-19T20:48:21.335Z,98.20
2019-02-19T20:50:50.738Z,97.60
2019-02-19T20:53:23.287Z,96.20
2019-02-19T20:55:52.628Z,96.30
2019-02-19T20:58:21.991Z,96.50
2019-02-19T21:00:53.237Z,96.90
2019-02-19T21:03:22.555Z,97.10
2019-02-19T21:05:51.876Z,96.90
2019-02-19T21:08:21.378Z,97.20
2019-02-19T21:13:57.611Z,97.80
2019-02-19T21:16:27.277Z,97.80
2019-02-19T21:18:56.673Z,98.00
2019-02-19T21:21:26.002Z,98.40
2019-02-19T21:23:55.249Z,98.50
2019-02-19T21:26:24.472Z,98.50
2019-02-19T21:28:53.665Z,98.60
2019-02-19T21:31:22.884Z,98.70
2019-02-19T21:33:52.276Z,98.60
2019-02-19T21:36:21.615Z,98.40
2019-02-19T21:38:52.461Z,98.10
2019-02-19T21:41:21.848Z,97.70
2019-02-19T21:43:51.256Z,97.40
2019-02-19T21:46:20.493Z,97.30
2019-02-19T21:48:49.806Z,97.40
2019-02-19T21:51:19.060Z,97.60
2019-02-19T21:53:48.461Z,97.30
2019-02-19T21:56:17.716Z,97.70
2019-02-19T21:58:47.028Z,97.80
2019-02-19T22:01:16.385Z,98.40
2019-02-19T22:03:45.744Z,98.20
2019-02-19T22:06:15.384Z,98.20
2019-02-19T22:08:44.838Z,97.70
2019-02-19T22:11:14.221Z,97.60
2019-02-19T22:13:43.780Z,97.80
2019-02-19T22:16:13.144Z,97.60
2019-02-19T22:18:42.467Z,97.90
2019-02-19T22:21:13.293Z,98.10
2019-02-19T22:23:42.606Z,98.10
2019-02-19T22:26:12.059Z,98.10
2019-02-19T22:28:41.363Z,97.80
2019-02-19T22:31:12.371Z,97.70
2019-02-19T22:33:42.553Z,98.00
2019-02-19T22:36:13.477Z,98.20
2019-02-19T22:38:43.165Z,98.20
2019-02-19T22:41:15.441Z,98.20
2019-02-19T22:43:45.566Z,98.10
2019-02-19T22:46:15.076Z,98.20
2019-02-19T22:48:44.495Z,98.20
2019-02-19T22:51:13.957Z,97.70
2019-02-19T22:53:44.979Z,97.80
2019-02-19T22:56:15.921Z,97.80
2019-02-19T22:58:46.465Z,97.90
2019-02-19T23:01:23.429Z,98.10
2019-02-19T23:03:53.005Z,98.40
2019-02-19T23:06:22.480Z,98.40
2019-02-19T23:08:52.107Z,98.40
2019-02-19T23:11:21.767Z,98.50
2019-02-19T23:13:51.286Z,98.10
2019-02-19T23:16:22.728Z,97.80
2019-02-19T23:18:52.005Z,97.20
2019-02-19T23:21:21.365Z,97.10
2019-02-19T23:23:50.693Z,97.20
2019-02-19T23:26:20.092Z,97.70
2019-02-19T23:28:49.350Z,97.80
2019-02-19T23:31:18.738Z,98.30
2019-02-19T23:33:47.970Z,98.40
2019-02-19T23:36:27.428Z,98.50
2019-02-19T23:38:56.753Z,98.60
2019-02-19T23:41:26.065Z,98.60
2019-02-19T23:43:57.132Z,98.70
2019-02-19T23:46:26.421Z,98.70
2019-02-19T23:48:55.652Z,98.80
2019-02-19T23:51:25.054Z,98.80
2019-02-19T23:53:54.411Z,99.00
2019-02-19T23:56:23.811Z,99.10
2019-02-19T23:58:53.159Z,99.10
